createdAt,value
2018-04-14T00:01:15.669Z,82.04
2018-04-14T00:03:43.146Z,81.76
2018-04-14T00:06:10.613Z,82.03
2018-04-14T00:08:38.111Z,82.55
2018-04-14T00:11:05.603Z,82.71
2018-04-14T00:13:33.071Z,83.00
2018-04-14T00:16:00.582Z,83.44
2018-04-14T00:18:28.077Z,83.97
2018-04-14T00:20:55.567Z,83.94
2018-04-14T00:23:23.050Z,84.48
2018-04-14T00:25:50.547Z,84.46
2018-04-14T00:28:18.042Z,84.59
2018-04-14T00:30:45.534Z,84.57
2018-04-14T00:33:13.042Z,84.61
2018-04-14T00:35:40.539Z,84.32
2018-04-14T00:38:08.042Z,83.90
2018-04-14T00:40:35.554Z,84.37
2018-04-14T00:43:03.060Z,84.35
2018-04-14T00:45:30.551Z,84.57
2018-04-14T00:47:58.052Z,84.74
2018-04-14T00:50:25.687Z,84.80
2018-04-14T00:52:53.229Z,85.14
2018-04-14T00:55:20.724Z,85.03
2018-04-14T00:57:48.438Z,85.19
2018-04-14T01:00:16.051Z,85.25
2018-04-14T01:02:43.518Z,85.16
2018-04-14T01:05:11.012Z,85.06
2018-04-14T01:07:38.585Z,84.98
2018-04-14T01:10:06.062Z,85.23
2018-04-14T01:12:33.592Z,84.88
2018-04-14T01:15:01.112Z,84.96
2018-04-14T01:17:28.721Z,84.98
2018-04-14T01:19:56.255Z,85.13
2018-04-14T01:22:23.753Z,85.19
2018-04-14T01:24:51.553Z,85.63
2018-04-14T01:27:19.061Z,85.61
2018-04-14T01:29:46.585Z,85.76
2018-04-14T01:32:14.103Z,85.97
2018-04-14T01:34:41.606Z,86.08
2018-04-14T01:37:09.108Z,86.15
2018-04-14T01:39:36.615Z,86.20
2018-04-14T01:42:04.227Z,86.35
2018-04-14T01:44:31.735Z,85.86
2018-04-14T01:46:59.250Z,85.54
2018-04-14T01:49:26.750Z,85.59
2018-04-14T01:51:54.243Z,85.28
2018-04-14T01:54:21.751Z,85.45
2018-04-14T01:56:49.281Z,85.87
2018-04-14T01:59:16.795Z,85.61
2018-04-14T02:01:44.287Z,85.77
2018-04-14T02:04:11.795Z,86.06
2018-04-14T02:06:39.305Z,86.58
2018-04-14T02:09:06.889Z,85.93
2018-04-14T02:11:34.363Z,85.82
2018-04-14T02:14:01.873Z,86.14
2018-04-14T02:16:29.481Z,86.32
2018-04-14T02:18:56.967Z,86.34
2018-04-14T02:21:24.470Z,86.50
2018-04-14T02:23:51.949Z,86.57
2018-04-14T02:26:19.458Z,86.64
2018-04-14T02:28:46.996Z,86.64
2018-04-14T02:31:14.488Z,86.60
2018-04-14T02:33:42.014Z,86.75
2018-04-14T02:36:09.510Z,86.65
2018-04-14T02:38:37.026Z,86.81
2018-04-14T02:41:04.515Z,86.83
2018-04-14T02:43:32.016Z,86.57
2018-04-14T02:45:59.493Z,86.79
2018-04-14T02:48:26.976Z,87.06
2018-04-14T02:50:54.489Z,87.19
2018-04-14T02:53:22.060Z,87.25
2018-04-14T02:55:49.589Z,87.27
2018-04-14T02:58:17.110Z,87.15
2018-04-14T03:00:44.644Z,86.84
2018-04-14T03:03:12.162Z,87.01
2018-04-14T03:05:40.611Z,87.01
2018-04-14T03:08:08.130Z,87.01
2018-04-14T03:10:35.621Z,86.96
2018-04-14T03:13:03.150Z,87.11
2018-04-14T03:15:30.704Z,87.51
2018-04-14T03:17:58.290Z,87.10
2018-04-14T03:20:25.811Z,87.25
2018-04-14T03:22:53.350Z,87.66
2018-04-14T03:25:20.890Z,88.30
2018-04-14T03:27:48.477Z,88.21
2018-04-14T03:30:16.064Z,87.71
2018-04-14T03:32:43.582Z,87.51
2018-04-14T03:35:11.193Z,87.42
2018-04-14T03:37:38.689Z,87.70
2018-04-14T03:40:06.195Z,87.89
2018-04-14T03:42:33.696Z,87.99
2018-04-14T03:45:01.189Z,88.37
2018-04-14T03:47:28.705Z,88.11
2018-04-14T03:49:56.210Z,88.08
2018-04-14T03:52:23.722Z,87.87
2018-04-14T03:54:51.223Z,88.17
2018-04-14T03:57:18.733Z,87.96
2018-04-14T03:59:46.224Z,87.98
2018-04-14T04:02:13.741Z,88.09
2018-04-14T04:04:41.271Z,87.94
2018-04-14T04:07:08.755Z,87.95
2018-04-14T04:09:36.265Z,87.79
2018-04-14T04:12:03.757Z,87.86
2018-04-14T04:14:31.256Z,87.67
2018-04-14T04:16:58.787Z,87.76
2018-04-14T04:19:38.021Z,87.56
2018-04-14T04:22:18.651Z,88.19
2018-04-14T04:24:58.121Z,87.47
2018-04-14T04:27:25.711Z,87.66
2018-04-14T04:29:53.335Z,87.51
2018-04-14T04:32:20.839Z,87.58
2018-04-14T04:34:48.313Z,87.46
2018-04-14T04:37:16.806Z,87.25
2018-04-14T04:39:44.318Z,87.19
2018-04-14T04:42:11.804Z,87.57
2018-04-14T04:44:39.428Z,87.34
2018-04-14T04:47:06.914Z,87.71
2018-04-14T04:49:34.408Z,87.84
2018-04-14T04:52:01.880Z,87.36
2018-04-14T04:54:29.396Z,87.34
2018-04-14T04:56:56.892Z,87.04
2018-04-14T04:59:24.405Z,86.62
2018-04-14T05:01:51.928Z,86.74
2018-04-14T05:04:19.425Z,86.15
2018-04-14T05:06:46.985Z,85.65
2018-04-14T05:09:14.472Z,85.35
2018-04-14T05:11:41.988Z,85.21
2018-04-14T05:14:09.475Z,84.52
2018-04-14T05:16:36.995Z,84.61
2018-04-14T05:19:04.467Z,84.33
2018-04-14T05:21:31.945Z,83.89
2018-04-14T05:23:59.438Z,83.83
2018-04-14T05:26:26.940Z,83.36
2018-04-14T05:28:54.450Z,83.22
2018-04-14T05:31:22.514Z,83.37
2018-04-14T05:33:50.129Z,83.81
2018-04-14T05:36:17.628Z,83.41
2018-04-14T05:38:45.142Z,83.10
2018-04-14T05:41:12.646Z,83.29
2018-04-14T05:43:40.144Z,83.02
2018-04-14T05:46:07.665Z,83.98
2018-04-14T05:48:35.241Z,83.55
2018-04-14T05:51:02.748Z,83.43
2018-04-14T05:53:30.257Z,83.37
2018-04-14T05:55:57.743Z,83.25
2018-04-14T05:58:25.226Z,82.94
2018-04-14T06:00:52.738Z,82.75
2018-04-14T06:03:20.251Z,82.33
2018-04-14T06:05:47.774Z,81.40
2018-04-14T06:08:15.269Z,80.73
2018-04-14T06:10:43.770Z,80.27
2018-04-14T06:16:06.600Z,79.85
2018-04-14T06:18:34.136Z,79.27
2018-04-14T06:21:01.625Z,78.93
2018-04-14T06:23:29.669Z,80.41
2018-04-14T06:25:57.418Z,77.67
2018-04-14T06:28:24.905Z,77.18
2018-04-14T06:30:52.558Z,77.42
2018-04-14T06:33:20.155Z,76.04
2018-04-14T06:35:47.668Z,75.19
2018-04-14T06:38:15.203Z,75.64
2018-04-14T06:40:42.697Z,76.17
2018-04-14T06:43:10.236Z,73.37
2018-04-14T06:45:37.771Z,72.10
2018-04-14T06:48:05.251Z,72.80
2018-04-14T06:50:32.870Z,72.72
2018-04-14T06:53:00.361Z,73.46
2018-04-14T06:55:27.848Z,73.21
2018-04-14T06:57:55.347Z,72.16
2018-04-14T07:00:22.903Z,71.02
2018-04-14T07:02:50.507Z,70.54
2018-04-14T07:05:17.980Z,70.27
2018-04-14T07:07:45.496Z,69.06
2018-04-14T07:10:12.992Z,68.82
2018-04-14T07:12:40.582Z,68.08
2018-04-14T07:15:08.133Z,67.76
2018-04-14T07:17:35.649Z,67.28
2018-04-14T07:20:03.338Z,66.71
2018-04-14T07:25:04.773Z,65.25
2018-04-14T07:27:32.291Z,65.28
2018-04-14T07:29:59.800Z,64.94
2018-04-14T07:32:27.306Z,63.61
2018-04-14T07:34:55.006Z,68.11
2018-04-14T07:37:22.547Z,64.52
2018-04-14T07:39:50.118Z,64.81
2018-04-14T07:42:17.639Z,61.09
2018-04-14T07:44:45.147Z,59.46
2018-04-14T07:47:12.973Z,59.25
2018-04-14T07:49:40.471Z,60.46
2018-04-14T07:52:07.977Z,58.99
2018-04-14T07:54:35.457Z,57.93
2018-04-14T07:57:03.311Z,57.18
2018-04-14T07:59:31.990Z,56.43
2018-04-14T08:02:01.625Z,56.97
2018-04-14T08:04:29.446Z,56.52
2018-04-14T08:06:57.356Z,56.04
2018-04-14T08:09:25.019Z,55.98
2018-04-14T08:11:53.005Z,55.35
2018-04-14T08:14:23.056Z,55.34
2018-04-14T08:16:50.906Z,55.45
2018-04-14T08:19:18.696Z,54.50
2018-04-14T08:21:46.401Z,54.46
2018-04-14T08:24:15.718Z,53.43
2018-04-14T08:26:43.699Z,51.73
2018-04-14T08:29:13.855Z,51.76
2018-04-14T08:31:41.691Z,50.78
2018-04-14T08:34:10.153Z,50.26
2018-04-14T08:36:45.109Z,51.12
2018-04-14T08:39:14.167Z,50.24
2018-04-14T08:41:41.936Z,48.67
2018-04-14T08:44:10.128Z,48.94
2018-04-14T08:46:41.583Z,49.38
2018-04-14T08:49:09.959Z,46.64
2018-04-14T08:51:38.640Z,47.21
2018-04-14T08:54:08.991Z,47.60
2018-04-14T08:56:36.763Z,46.47
2018-04-14T08:59:04.336Z,45.02
2018-04-14T09:01:35.641Z,44.71
2018-04-14T09:04:06.407Z,44.86
2018-04-14T09:06:34.630Z,44.77
2018-04-14T09:09:04.950Z,44.46
2018-04-14T09:11:33.139Z,43.53
2018-04-14T09:14:01.387Z,42.58
2018-04-14T09:16:29.053Z,41.79
2018-04-14T09:18:57.221Z,43.56
2018-04-14T09:21:25.134Z,43.14
2018-04-14T09:23:55.635Z,41.34
2018-04-14T09:26:23.340Z,42.24
2018-04-14T09:28:51.719Z,40.51
2018-04-14T09:31:19.992Z,41.18
2018-04-14T09:33:48.300Z,42.50
2018-04-14T09:36:15.848Z,39.44
2018-04-14T09:38:47.682Z,38.97
2018-04-14T09:41:16.929Z,40.21
2018-04-14T09:43:44.794Z,39.12
2018-04-14T09:46:12.818Z,37.34
2018-04-14T09:48:41.857Z,37.79
2018-04-14T09:51:12.004Z,35.34
2018-04-14T09:53:42.025Z,35.81
2018-04-14T09:56:09.779Z,35.63
2018-04-14T09:58:37.428Z,34.61
2018-04-14T10:01:14.275Z,35.07
2018-04-14T10:03:56.044Z,36.12
2018-04-14T10:06:27.447Z,34.51
2018-04-14T10:08:56.130Z,34.63
2018-04-14T10:11:25.236Z,36.71
2018-04-14T10:13:54.494Z,36.59
2018-04-14T10:16:22.212Z,35.37
2018-04-14T10:18:50.487Z,36.77
2018-04-14T10:21:18.311Z,35.80
2018-04-14T10:23:46.193Z,35.95
2018-04-14T10:26:14.310Z,37.23
2018-04-14T10:28:42.610Z,33.07
2018-04-14T10:31:10.577Z,32.57
2018-04-14T10:33:40.151Z,33.82
2018-04-14T10:36:07.663Z,32.49
2018-04-14T10:38:45.581Z,33.94
2018-04-14T10:41:22.197Z,32.35
2018-04-14T10:43:50.649Z,34.46
2018-04-14T10:46:18.863Z,30.68
2018-04-14T10:48:46.733Z,33.27
2018-04-14T10:51:14.300Z,31.79
2018-04-14T10:53:42.321Z,32.33
2018-04-14T10:56:10.234Z,30.70
2018-04-14T10:58:38.909Z,31.57
2018-04-14T11:01:06.519Z,31.72
2018-04-14T11:03:34.066Z,32.74
2018-04-14T11:06:01.584Z,30.14
2018-04-14T11:08:29.121Z,30.19
2018-04-14T11:10:56.627Z,29.53
2018-04-14T11:13:24.112Z,31.42
2018-04-14T11:15:51.630Z,36.94
2018-04-14T11:18:19.129Z,32.80
2018-04-14T11:20:46.611Z,29.15
2018-04-14T11:23:14.288Z,30.22
2018-04-14T11:25:41.745Z,35.23
2018-04-14T11:28:09.282Z,30.50
2018-04-14T11:30:36.778Z,29.70
2018-04-14T11:33:04.253Z,28.95
2018-04-14T11:35:31.726Z,35.58
2018-04-14T11:37:59.374Z,36.87
2018-04-14T11:40:26.864Z,35.70
2018-04-14T11:42:54.377Z,28.34
2018-04-14T11:45:21.971Z,27.38
2018-04-14T11:47:49.445Z,27.18
2018-04-14T11:50:16.930Z,26.68
2018-04-14T11:52:44.405Z,26.54
2018-04-14T11:55:11.922Z,23.87
2018-04-14T11:57:39.423Z,22.96
2018-04-14T12:00:06.892Z,24.08
2018-04-14T12:02:34.407Z,23.79
2018-04-14T12:05:02.598Z,24.72
2018-04-14T12:07:30.111Z,22.31
2018-04-14T12:09:57.577Z,22.53
2018-04-14T12:12:25.210Z,20.81
2018-04-14T12:14:52.804Z,22.11
2018-04-14T12:17:20.312Z,21.89
2018-04-14T12:19:47.822Z,24.19
2018-04-14T12:22:15.400Z,21.21
2018-04-14T12:24:42.917Z,18.59
2018-04-14T12:27:10.569Z,18.31
2018-04-14T12:29:38.071Z,17.73
2018-04-14T12:32:05.551Z,17.75
2018-04-14T12:34:33.061Z,16.95
2018-04-14T12:37:00.597Z,16.11
2018-04-14T12:39:28.289Z,15.33
2018-04-14T12:41:55.846Z,12.48
2018-04-14T12:44:23.389Z,12.36
2018-04-14T12:46:50.892Z,9.64
2018-04-14T12:49:18.730Z,9.31
2018-04-14T12:51:46.839Z,9.87
2018-04-14T12:54:14.324Z,10.55
2018-04-14T12:56:42.052Z,11.32
2018-04-14T12:59:09.556Z,11.51
2018-04-14T13:01:37.053Z,8.70
2018-04-14T13:04:06.833Z,10.78
2018-04-14T13:06:34.382Z,11.57
2018-04-14T13:09:01.889Z,10.91
2018-04-14T13:11:29.422Z,8.98
2018-04-14T13:13:56.903Z,9.45
2018-04-14T13:16:24.421Z,11.15
2018-04-14T13:18:51.886Z,10.32
2018-04-14T13:21:19.376Z,11.37
2018-04-14T13:23:46.881Z,12.22
2018-04-14T13:26:14.357Z,9.59
2018-04-14T13:28:41.832Z,9.69
2018-04-14T13:31:09.392Z,11.34
2018-04-14T13:33:36.880Z,11.42
2018-04-14T13:36:04.346Z,10.76
2018-04-14T13:38:31.844Z,11.29
2018-04-14T13:40:59.336Z,12.30
2018-04-14T13:49:36.755Z,14.38
2018-04-14T13:52:04.249Z,13.39
2018-04-14T13:54:31.778Z,12.56
2018-04-14T13:56:59.402Z,13.43
2018-04-14T13:59:26.996Z,14.10
2018-04-14T14:01:54.512Z,13.73
2018-04-14T14:04:22.018Z,13.62
2018-04-14T14:06:49.489Z,12.75
2018-04-14T14:09:16.997Z,12.05
2018-04-14T14:11:44.487Z,12.14
2018-04-14T14:14:11.977Z,12.35
2018-04-14T14:16:39.467Z,12.30
2018-04-14T14:19:07.054Z,11.68
2018-04-14T14:21:34.522Z,11.40
2018-04-14T14:24:02.196Z,10.55
2018-04-14T14:26:29.642Z,9.79
2018-04-14T14:28:57.102Z,11.79
2018-04-14T14:31:24.545Z,11.81
2018-04-14T14:33:52.062Z,11.93
2018-04-14T14:36:19.556Z,11.60
2018-04-14T14:38:47.025Z,11.30
2018-04-14T14:41:14.516Z,10.61
2018-04-14T14:43:41.992Z,10.08
2018-04-14T14:46:09.498Z,8.78
2018-04-14T14:48:36.975Z,9.09
2018-04-14T14:51:04.433Z,10.82
2018-04-14T14:53:31.890Z,11.39
2018-04-14T14:55:59.404Z,11.10
2018-04-14T14:58:26.898Z,12.87
2018-04-14T15:00:54.577Z,10.88
2018-04-14T15:03:22.044Z,10.49
2018-04-14T15:05:49.505Z,12.58
2018-04-14T15:08:16.971Z,11.06
2018-04-14T15:10:44.449Z,11.00
2018-04-14T15:13:11.990Z,11.27
2018-04-14T15:15:39.445Z,12.40
2018-04-14T15:18:07.008Z,12.53
2018-04-14T15:20:34.465Z,14.34
2018-04-14T15:23:01.947Z,14.47
2018-04-14T15:25:29.527Z,14.73
2018-04-14T15:27:57.017Z,14.74
2018-04-14T15:30:24.574Z,14.83
2018-04-14T15:32:52.065Z,14.46
2018-04-14T15:35:19.556Z,13.77
2018-04-14T15:37:47.062Z,13.05
2018-04-14T15:40:14.714Z,11.27
2018-04-14T15:42:42.173Z,11.26
2018-04-14T15:45:09.653Z,11.43
2018-04-14T15:47:37.138Z,10.53
2018-04-14T15:50:04.608Z,10.91
2018-04-14T15:52:32.108Z,11.60
2018-04-14T15:54:59.628Z,13.68
2018-04-14T15:57:27.109Z,12.88
2018-04-14T15:59:54.564Z,11.63
2018-04-14T16:02:22.059Z,12.01
2018-04-14T16:04:49.537Z,11.73
2018-04-14T16:07:17.057Z,13.39
2018-04-14T16:09:44.565Z,13.24
2018-04-14T16:12:12.713Z,15.27
2018-04-14T16:14:40.203Z,17.37
2018-04-14T16:17:08.018Z,18.58
2018-04-14T16:19:35.532Z,19.84
2018-04-14T16:22:03.022Z,21.15
2018-04-14T16:24:30.495Z,22.73
2018-04-14T16:26:58.044Z,22.86
2018-04-14T16:29:25.521Z,23.76
2018-04-14T16:31:53.201Z,24.89
2018-04-14T16:34:20.685Z,26.34
2018-04-14T16:36:48.167Z,26.57
2018-04-14T16:39:15.788Z,27.60
2018-04-14T16:41:43.681Z,28.48
2018-04-14T16:44:11.460Z,29.37
2018-04-14T16:46:39.005Z,29.50
2018-04-14T16:49:06.580Z,30.64
2018-04-14T16:51:34.071Z,32.82
2018-04-14T16:54:01.659Z,32.81
2018-04-14T16:56:29.196Z,34.19
2018-04-14T16:58:56.708Z,33.03
2018-04-14T17:01:24.199Z,33.35
2018-04-14T17:03:51.684Z,34.31
2018-04-14T17:06:19.324Z,34.33
2018-04-14T17:08:46.815Z,35.02
2018-04-14T17:11:14.395Z,35.09
2018-04-14T17:13:41.904Z,34.82
2018-04-14T17:16:09.567Z,35.38
2018-04-14T17:18:37.082Z,35.10
2018-04-14T17:21:04.588Z,36.61
2018-04-14T17:23:32.066Z,35.78
2018-04-14T17:25:59.552Z,36.19
2018-04-14T17:28:27.053Z,35.42
2018-04-14T17:30:54.541Z,36.34
2018-04-14T17:33:22.053Z,35.23
2018-04-14T17:35:49.618Z,34.69
2018-04-14T17:38:17.115Z,36.15
2018-04-14T17:40:44.601Z,35.99
2018-04-14T17:43:12.106Z,35.60
2018-04-14T17:45:39.567Z,37.62
2018-04-14T17:48:07.029Z,38.83
2018-04-14T17:50:34.497Z,36.90
2018-04-14T17:53:01.963Z,38.11
2018-04-14T17:55:29.474Z,38.47
2018-04-14T17:57:56.951Z,39.31
2018-04-14T18:00:24.448Z,40.37
2018-04-14T18:02:51.931Z,41.53
2018-04-14T18:05:19.404Z,42.15
2018-04-14T18:07:46.920Z,42.44
2018-04-14T18:10:14.502Z,43.37
2018-04-14T18:12:43.021Z,44.65
2018-04-14T18:15:10.498Z,45.40
2018-04-14T18:17:38.086Z,46.16
2018-04-14T18:20:05.743Z,46.97
2018-04-14T18:22:33.350Z,48.09
2018-04-14T18:25:00.823Z,48.72
2018-04-14T18:27:28.365Z,49.81
2018-04-14T18:29:55.953Z,50.53
2018-04-14T18:32:24.749Z,51.28
2018-04-14T18:34:52.350Z,51.66
2018-04-14T18:37:22.849Z,52.02
2018-04-14T18:39:50.339Z,52.48
2018-04-14T18:42:17.921Z,52.36
2018-04-14T18:44:45.565Z,52.89
2018-04-14T18:47:13.219Z,53.27
2018-04-14T18:49:40.760Z,53.53
2018-04-14T18:52:08.231Z,53.84
2018-04-14T18:54:37.049Z,53.28
2018-04-14T18:57:04.634Z,53.86
2018-04-14T19:02:14.789Z,53.47
2018-04-14T19:04:42.286Z,53.61
2018-04-14T19:07:09.797Z,53.71
2018-04-14T19:09:39.004Z,53.59
2018-04-14T19:12:06.508Z,53.41
2018-04-14T19:14:33.977Z,53.33
2018-04-14T19:17:01.518Z,53.68
2018-04-14T19:19:29.049Z,53.01
2018-04-14T19:21:56.628Z,52.80
2018-04-14T19:24:24.133Z,53.14
2018-04-14T19:26:51.706Z,53.17
2018-04-14T19:29:23.730Z,53.55
2018-04-14T19:31:51.361Z,53.91
2018-04-14T19:34:18.841Z,53.70
2018-04-14T19:36:46.419Z,53.82
2018-04-14T19:39:13.974Z,53.49
2018-04-14T19:41:41.498Z,53.38
2018-04-14T19:44:09.024Z,53.34
2018-04-14T19:46:36.520Z,53.27
2018-04-14T19:49:04.069Z,53.43
2018-04-14T19:51:32.744Z,53.47
2018-04-14T19:54:01.492Z,53.74
2018-04-14T19:56:29.013Z,53.88
2018-04-14T19:58:56.503Z,54.26
2018-04-14T20:01:26.940Z,53.87
2018-04-14T20:03:58.950Z,54.35
2018-04-14T20:06:26.499Z,54.65
2018-04-14T20:08:53.989Z,54.63
2018-04-14T20:11:21.473Z,54.57
2018-04-14T20:13:49.021Z,54.66
2018-04-14T20:16:16.562Z,52.90
2018-04-14T20:18:44.796Z,52.93
2018-04-14T20:21:12.341Z,52.80
2018-04-14T20:23:39.878Z,52.90
2018-04-14T20:26:07.379Z,52.94
2018-04-14T20:28:34.873Z,52.77
2018-04-14T20:31:02.358Z,53.04
2018-04-14T20:33:29.855Z,53.17
2018-04-14T20:35:57.343Z,53.80
2018-04-14T20:38:24.908Z,54.13
2018-04-14T20:40:52.438Z,54.11
2018-04-14T20:43:19.974Z,54.68
2018-04-14T20:45:47.470Z,55.58
2018-04-14T20:48:14.940Z,56.47
2018-04-14T20:50:42.582Z,56.89
2018-04-14T20:53:10.084Z,57.50
2018-04-14T20:55:37.639Z,58.08
2018-04-14T20:58:05.243Z,59.28
2018-04-14T21:00:32.764Z,59.74
2018-04-14T21:03:00.331Z,63.98
2018-04-14T21:05:27.979Z,59.98
2018-04-14T21:07:55.571Z,61.70
2018-04-14T21:10:23.038Z,58.53
2018-04-14T21:12:50.523Z,59.47
2018-04-14T21:15:18.145Z,63.54
2018-04-14T21:17:45.708Z,61.63
2018-04-14T21:20:13.212Z,61.05
2018-04-14T21:22:40.717Z,60.58
2018-04-14T21:25:08.214Z,59.61
2018-04-14T21:27:35.707Z,58.95
2018-04-14T21:30:03.222Z,59.93
2018-04-14T21:32:30.695Z,60.33
2018-04-14T21:34:58.191Z,60.91
2018-04-14T21:37:25.682Z,71.41
2018-04-14T21:39:53.165Z,61.99
2018-04-14T21:42:20.660Z,62.34
2018-04-14T21:44:48.145Z,58.43
2018-04-14T21:47:15.721Z,58.79
2018-04-14T21:49:44.065Z,58.56
2018-04-14T21:52:11.740Z,59.84
2018-04-14T21:54:39.225Z,61.00
2018-04-14T21:57:06.737Z,57.80
2018-04-14T21:59:34.222Z,58.39
2018-04-14T22:02:01.738Z,65.65
2018-04-14T22:04:29.370Z,57.06
2018-04-14T22:06:56.877Z,55.99
2018-04-14T22:09:24.394Z,61.69
2018-04-14T22:11:51.853Z,57.75
2018-04-14T22:14:31.230Z,58.31
2018-04-14T22:16:58.832Z,59.92
2018-04-14T22:19:26.419Z,57.89
2018-04-14T22:21:53.875Z,61.07
2018-04-14T22:24:21.442Z,66.25
2018-04-14T22:26:49.154Z,57.76
2018-04-14T22:29:19.630Z,58.03
2018-04-14T22:31:48.962Z,58.72
2018-04-14T22:34:16.456Z,59.05
2018-04-14T22:36:43.937Z,60.06
2018-04-14T22:39:11.664Z,60.57
2018-04-14T22:41:39.265Z,61.26
2018-04-14T22:44:06.742Z,61.92
2018-04-14T22:46:34.284Z,62.73
2018-04-14T22:49:02.108Z,63.20
2018-04-14T22:51:29.591Z,63.49
2018-04-14T22:53:57.075Z,63.91
2018-04-14T22:56:24.572Z,64.48
2018-04-14T22:58:52.068Z,64.49
2018-04-14T23:01:19.548Z,64.66
2018-04-14T23:03:47.008Z,64.63
2018-04-14T23:06:14.509Z,64.91
2018-04-14T23:08:42.094Z,64.77
2018-04-14T23:11:09.547Z,64.48
2018-04-14T23:13:37.031Z,63.89
2018-04-14T23:16:04.626Z,63.73
2018-04-14T23:18:32.133Z,63.65
2018-04-14T23:20:59.615Z,63.81
2018-04-14T23:23:27.101Z,64.47
2018-04-14T23:25:54.614Z,65.20
2018-04-14T23:28:22.108Z,65.21
2018-04-14T23:30:49.589Z,65.52
2018-04-14T23:33:17.075Z,64.32
2018-04-14T23:35:44.595Z,63.50
2018-04-14T23:38:12.163Z,63.47
2018-04-14T23:40:39.621Z,63.36
2018-04-14T23:43:07.145Z,63.78
2018-04-14T23:45:34.631Z,64.17
2018-04-14T23:48:02.145Z,64.45
2018-04-14T23:50:29.618Z,64.36
2018-04-14T23:52:57.180Z,64.31
2018-04-14T23:55:24.638Z,63.95
2018-04-14T23:57:52.115Z,63.53
